Meteorología y climatología de Navarra
Datos de la estación - Meteo Navarra

Estación de Irabia GN

Altitud 822 m.


Datos desde el 15/02/2020 hasta el 16/02/2020 en horario solar
Los datos son PROVISIONALES

Anterior Página 1 de 1 Siguiente Descargar: Formato para Excel 2000 o superior   Formato csv   Formato para OpenOffice Calc
Fecha Temperatura Humedad relativa Radiación global Insolación Precipitación Vel. viento 10 m Vel. viento 10 m Dir. viento 10 m
ºC % W/m² s l/m² m/s km/h º
15/02/2020 0:00 0.9 98 - - - - 0.0 - - - - - -
15/02/2020 0:10 0.9 98 - - - - 0.0 - - - - - -
15/02/2020 0:20 0.6 98 - - - - 0.0 - - - - - -
15/02/2020 0:30 0.7 98 - - - - 0.0 - - - - - -
15/02/2020 0:40 0.8 98 - - - - 0.0 - - - - - -
15/02/2020 0:50 0.6 98 - - - - 0.0 - - - - - -
15/02/2020 1:00 0.3 98 - - - - 0.0 - - - - - -
15/02/2020 1:10 0.3 98 - - - - 0.0 - - - - - -
15/02/2020 1:20 0.3 98 - - - - 0.0 - - - - - -
15/02/2020 1:30 0.3 98 - - - - 0.0 - - - - - -
15/02/2020 1:40 0.2 98 - - - - 0.0 - - - - - -
15/02/2020 1:50 0.0 98 - - - - 0.0 - - - - - -
15/02/2020 2:00 -0.2 98 - - - - 0.0 - - - - - -
15/02/2020 2:10 -0.2 98 - - - - 0.0 - - - - - -
15/02/2020 2:20 -0.0 98 - - - - 0.0 - - - - - -
15/02/2020 2:30 -0.0 98 - - - - 0.0 - - - - - -
15/02/2020 2:40 -0.1 98 - - - - 0.0 - - - - - -
15/02/2020 2:50 0.1 98 - - - - 0.0 - - - - - -
15/02/2020 3:00 0.2 98 - - - - 0.0 - - - - - -
15/02/2020 3:10 0.2 98 - - - - 0.0 - - - - - -
15/02/2020 3:20 -0.2 98 - - - - 0.0 - - - - - -
15/02/2020 3:30 -0.2 98 - - - - 0.0 - - - - - -
15/02/2020 3:40 -0.4 98 - - - - 0.0 - - - - - -
15/02/2020 3:50 -0.4 98 - - - - 0.0 - - - - - -
15/02/2020 4:00 -0.4 98 - - - - 0.0 - - - - - -
15/02/2020 4:10 -0.5 98 - - - - 0.0 - - - - - -
15/02/2020 4:20 -0.7 98 - - - - 0.0 - - - - - -
15/02/2020 4:30 -0.3 98 - - - - 0.0 - - - - - -
15/02/2020 4:40 -0.2 98 - - - - 0.0 - - - - - -
15/02/2020 4:50 -0.5 98 - - - - 0.0 - - - - - -
15/02/2020 5:00 -0.6 98 - - - - 0.0 - - - - - -
15/02/2020 5:10 -0.8 98 - - - - 0.0 - - - - - -
15/02/2020 5:20 -0.8 98 - - - - 0.0 - - - - - -
15/02/2020 5:30 -0.7 98 - - - - 0.0 - - - - - -
15/02/2020 5:40 -0.8 98 - - - - 0.0 - - - - - -
15/02/2020 5:50 -0.9 98 - - - - 0.0 - - - - - -
15/02/2020 6:00 -0.9 98 - - - - 0.0 - - - - - -
15/02/2020 6:10 -0.8 98 - - - - 0.0 - - - - - -
15/02/2020 6:20 -0.9 98 - - - - 0.0 - - - - - -
15/02/2020 6:30 -1.0 98 - - - - 0.0 - - - - - -
15/02/2020 6:40 -1.0 98 - - - - 0.0 - - - - - -
15/02/2020 6:50 -1.0 98 - - - - 0.0 - - - - - -
15/02/2020 7:00 -1.1 98 - - - - 0.0 - - - - - -
15/02/2020 7:10 -1.0 98 - - - - 0.0 - - - - - -
15/02/2020 7:20 -1.0 98 - - - - 0.0 - - - - - -
15/02/2020 7:30 -0.9 98 - - - - 0.0 - - - - - -
15/02/2020 7:40 -0.9 98 - - - - 0.0 - - - - - -
15/02/2020 7:50 -0.8 98 - - - - 0.0 - - - - - -
15/02/2020 8:00 -0.7 98 - - - - 0.0 - - - - - -
15/02/2020 8:10 -0.8 98 - - - - 0.0 - - - - - -
15/02/2020 8:20 -0.8 98 - - - - 0.0 - - - - - -
15/02/2020 8:30 -0.6 98 - - - - 0.0 - - - - - -
15/02/2020 8:40 -0.5 98 - - - - 0.0 - - - - - -
15/02/2020 8:50 -0.1 98 - - - - 0.0 - - - - - -
15/02/2020 9:00 0.1 98 - - - - 0.0 - - - - - -
15/02/2020 9:10 0.4 98 - - - - 0.0 - - - - - -
15/02/2020 9:20 0.9 98 - - - - 0.0 - - - - - -
15/02/2020 9:30 1.9 98 - - - - 0.0 - - - - - -
15/02/2020 9:40 2.7 98 - - - - 0.0 - - - - - -
15/02/2020 9:50 3.4 98 - - - - 0.0 - - - - - -
15/02/2020 10:00 4.8 98 - - - - 0.0 - - - - - -
15/02/2020 10:10 6.8 98 - - - - 0.0 - - - - - -
15/02/2020 10:20 8.7 83 - - - - 0.0 - - - - - -
15/02/2020 10:30 10.2 76 - - - - 0.0 - - - - - -
15/02/2020 10:40 10.9 74 - - - - 0.0 - - - - - -
15/02/2020 10:50 11.9 69 - - - - 0.0 - - - - - -
15/02/2020 11:00 12.8 66 - - - - 0.0 - - - - - -
15/02/2020 11:10 13.5 62 - - - - 0.0 - - - - - -
15/02/2020 11:20 13.8 60 - - - - 0.0 - - - - - -
15/02/2020 11:30 14.7 54 - - - - 0.0 - - - - - -
15/02/2020 11:40 16.2 47 - - - - 0.0 - - - - - -
15/02/2020 11:50 15.4 52 - - - - 0.0 - - - - - -
15/02/2020 12:00 16.6 47 - - - - 0.0 - - - - - -
15/02/2020 12:10 16.5 46 - - - - 0.0 - - - - - -
15/02/2020 12:20 17.0 45 - - - - 0.0 - - - - - -
15/02/2020 12:30 16.8 45 - - - - 0.0 - - - - - -
15/02/2020 12:40 17.2 43 - - - - 0.0 - - - - - -
15/02/2020 12:50 17.2 44 - - - - 0.0 - - - - - -
15/02/2020 13:00 17.1 43 - - - - 0.0 - - - - - -
15/02/2020 13:10 17.4 42 - - - - 0.0 - - - - - -
15/02/2020 13:20 17.3 42 - - - - 0.0 - - - - - -
15/02/2020 13:30 17.4 42 - - - - 0.0 - - - - - -
15/02/2020 13:40 17.5 42 - - - - 0.0 - - - - - -
15/02/2020 13:50 17.3 43 - - - - 0.0 - - - - - -
15/02/2020 14:00 17.2 43 - - - - 0.0 - - - - - -
15/02/2020 14:10 16.7 45 - - - - 0.0 - - - - - -
15/02/2020 14:20 16.7 43 - - - - 0.0 - - - - - -
15/02/2020 14:30 16.7 46 - - - - 0.0 - - - - - -
15/02/2020 14:40 16.7 47 - - - - 0.0 - - - - - -
15/02/2020 14:50 16.4 48 - - - - 0.0 - - - - - -
15/02/2020 15:00 16.2 50 - - - - 0.0 - - - - - -
15/02/2020 15:10 16.0 51 - - - - 0.0 - - - - - -
15/02/2020 15:20 15.6 53 - - - - 0.0 - - - - - -
15/02/2020 15:30 15.2 54 - - - - 0.0 - - - - - -
15/02/2020 15:40 15.0 55 - - - - 0.0 - - - - - -
15/02/2020 15:50 14.9 56 - - - - 0.0 - - - - - -
15/02/2020 16:00 14.5 58 - - - - 0.0 - - - - - -
15/02/2020 16:10 14.2 59 - - - - 0.0 - - - - - -
15/02/2020 16:20 14.1 58 - - - - 0.0 - - - - - -
15/02/2020 16:30 13.6 63 - - - - 0.0 - - - - - -
15/02/2020 16:40 13.1 65 - - - - 0.0 - - - - - -
15/02/2020 16:50 13.2 63 - - - - 0.0 - - - - - -
15/02/2020 17:00 13.1 64 - - - - 0.0 - - - - - -
15/02/2020 17:10 12.6 67 - - - - 0.0 - - - - - -
15/02/2020 17:20 12.1 69 - - - - 0.0 - - - - - -
15/02/2020 17:30 11.9 69 - - - - 0.0 - - - - - -
15/02/2020 17:40 11.4 70 - - - - 0.0 - - - - - -
15/02/2020 17:50 11.3 70 - - - - 0.0 - - - - - -
15/02/2020 18:00 10.8 71 - - - - 0.0 - - - - - -
15/02/2020 18:10 10.6 72 - - - - 0.0 - - - - - -
15/02/2020 18:20 10.4 72 - - - - 0.0 - - - - - -
15/02/2020 18:30 10.4 71 - - - - 0.0 - - - - - -
15/02/2020 18:40 10.1 73 - - - - 0.0 - - - - - -
15/02/2020 18:50 9.8 75 - - - - 0.0 - - - - - -
15/02/2020 19:00 9.4 75 - - - - 0.0 - - - - - -
15/02/2020 19:10 9.3 75 - - - - 0.0 - - - - - -
15/02/2020 19:20 9.0 76 - - - - 0.0 - - - - - -
15/02/2020 19:30 8.4 79 - - - - 0.0 - - - - - -
15/02/2020 19:40 8.3 79 - - - - 0.0 - - - - - -
15/02/2020 19:50 8.8 75 - - - - 0.0 - - - - - -
15/02/2020 20:00 8.8 75 - - - - 0.0 - - - - - -
15/02/2020 20:10 9.6 69 - - - - 0.0 - - - - - -
15/02/2020 20:20 9.9 65 - - - - 0.0 - - - - - -
15/02/2020 20:30 9.6 66 - - - - 0.0 - - - - - -
15/02/2020 20:40 9.7 67 - - - - 0.0 - - - - - -
15/02/2020 20:50 9.3 68 - - - - 0.0 - - - - - -
15/02/2020 21:00 8.7 72 - - - - 0.0 - - - - - -
15/02/2020 21:10 8.4 74 - - - - 0.0 - - - - - -
15/02/2020 21:20 8.2 74 - - - - 0.0 - - - - - -
15/02/2020 21:30 7.8 77 - - - - 0.0 - - - - - -
15/02/2020 21:40 7.6 78 - - - - 0.0 - - - - - -
15/02/2020 21:50 7.4 78 - - - - 0.0 - - - - - -
15/02/2020 22:00 7.2 77 - - - - 0.0 - - - - - -
15/02/2020 22:10 7.0 80 - - - - 0.0 - - - - - -
15/02/2020 22:20 6.7 80 - - - - 0.0 - - - - - -
15/02/2020 22:30 6.8 81 - - - - 0.0 - - - - - -
15/02/2020 22:40 6.5 81 - - - - 0.0 - - - - - -
15/02/2020 22:50 6.5 81 - - - - 0.0 - - - - - -
15/02/2020 23:00 6.5 81 - - - - 0.0 - - - - - -
15/02/2020 23:10 6.4 82 - - - - 0.0 - - - - - -
15/02/2020 23:20 8.7 71 - - - - 0.0 - - - - - -
15/02/2020 23:30 8.5 71 - - - - 0.0 - - - - - -
15/02/2020 23:40 7.9 73 - - - - 0.0 - - - - - -
15/02/2020 23:50 8.2 73 - - - - 0.0 - - - - - -
Anterior Página 1 de 1 Siguiente

NOTA: Tipo de datos según el color:
   - Valores diarios o 10 minutos correctos
   - Valores diarios calculados a partir de un número de datos 10 minutos menor que 144 y mayor que 120, o de un número de datos semihorarios menor que 48 y mayor que 40 (caso de las estaciones de INTIA y del Ministerio)
   - Valores diez minutos estimados


Contacto        Enlaces        Aviso legal